Leesville, Texas
Current Conditions -  °F | °C
As of 9:51 AM on Thursday 30 Oct 2014 (Local Time) from KBAZ Reporting Station
Overcast Overcast  
Wind Chill: 67°   Ceiling: 1200
Heat Index: 67°   Visibility: 10mi
Dew Point: 58°   Wind: 7mph
Humidity: 73%   Direction: 70°ENE
Pressure: 30.15"   Gusts: NA
Location:  29.41°N, 97.75°W
Report Text: KBAZ 301451Z 07006KT 10SM OVC012 19/14 A3015 RMK AO2 SLP202 T01940144 53015
Loading
Personal Weather Stations






























Interactive Weather Map
Tropical Storm Tracking
New forecast layout! Learn more

10-Day Weather Forecast

Advertisements
Track Severe Weather on mobile